createdAt,value
2022-11-05T00:02:00.196Z,1.10
2022-11-05T00:04:46.409Z,0.57
2022-11-05T00:07:39.238Z,0.75
2022-11-05T00:10:24.984Z,0.85
2022-11-05T00:13:16.677Z,0.90
2022-11-05T00:16:02.599Z,0.70
2022-11-05T00:18:30.019Z,1.35
2022-11-05T00:20:57.241Z,0.90
2022-11-05T00:23:42.803Z,0.80
2022-11-05T00:26:11.754Z,0.57
2022-11-05T00:28:44.140Z,0.82
2022-11-05T00:31:13.806Z,0.70
2022-11-05T00:33:42.855Z,0.85
2022-11-05T00:36:11.303Z,0.68
2022-11-05T00:38:38.404Z,0.98
2022-11-05T00:41:05.784Z,0.80
2022-11-05T00:43:51.168Z,0.73
2022-11-05T00:46:18.576Z,0.90
2022-11-05T00:49:03.985Z,0.60
2022-11-05T00:51:31.107Z,1.02
2022-11-05T00:53:58.248Z,0.80
2022-11-05T00:56:25.331Z,0.90
2022-11-05T00:58:52.340Z,0.85
2022-11-05T01:01:23.149Z,0.82
2022-11-05T01:03:51.877Z,0.98
2022-11-05T01:06:20.001Z,0.70
2022-11-05T01:08:50.532Z,0.57
2022-11-05T01:11:43.169Z,0.70
2022-11-05T01:14:13.281Z,0.77
2022-11-05T01:16:48.857Z,0.80
2022-11-05T01:19:18.150Z,0.80
2022-11-05T01:21:46.209Z,1.00
2022-11-05T01:24:13.486Z,0.82
2022-11-05T01:26:45.961Z,0.45
2022-11-05T01:29:16.731Z,1.00
2022-11-05T01:31:44.272Z,0.75
2022-11-05T01:34:14.618Z,1.30
2022-11-05T01:36:45.546Z,0.93
2022-11-05T01:39:15.757Z,0.77
2022-11-05T01:41:43.071Z,0.82
2022-11-05T01:44:50.578Z,0.68
2022-11-05T01:47:46.955Z,0.55
2022-11-05T01:50:26.579Z,0.65
2022-11-05T01:52:58.907Z,0.63
2022-11-05T01:55:35.378Z,0.90
2022-11-05T01:58:03.865Z,0.75
2022-11-05T02:00:31.745Z,0.80
2022-11-05T02:02:59.007Z,0.70
2022-11-05T02:05:26.551Z,0.65
2022-11-05T02:07:55.423Z,0.77
2022-11-05T02:10:26.174Z,0.43
2022-11-05T02:12:53.411Z,0.60
2022-11-05T02:16:01.977Z,0.65
2022-11-05T02:18:39.905Z,0.90
2022-11-05T02:21:36.274Z,0.60
2022-11-05T02:24:32.371Z,0.45
2022-11-05T02:27:07.714Z,0.68
2022-11-05T02:30:09.417Z,0.57
2022-11-05T02:32:45.235Z,0.50
2022-11-05T02:35:17.134Z,0.65
2022-11-05T02:37:52.306Z,0.75
2022-11-05T02:40:36.690Z,0.80
2022-11-05T02:43:16.857Z,1.00
2022-11-05T02:46:09.137Z,0.95
2022-11-05T02:48:57.837Z,0.77
2022-11-05T02:51:36.645Z,0.75
2022-11-05T02:54:19.399Z,0.70
2022-11-05T02:56:54.124Z,0.68
2022-11-05T03:02:39.138Z,1.08
2022-11-05T03:05:06.673Z,0.50
2022-11-05T03:07:59.804Z,1.00
2022-11-05T03:10:57.670Z,0.93
2022-11-05T03:13:40.056Z,1.40
2022-11-05T03:16:18.183Z,0.88
2022-11-05T03:19:16.513Z,0.88
2022-11-05T03:21:53.524Z,0.50
2022-11-05T03:24:25.478Z,0.60
2022-11-05T03:26:55.372Z,0.70
2022-11-05T03:29:30.570Z,0.57
2022-11-05T03:32:02.061Z,1.10
2022-11-05T03:34:42.114Z,0.70
2022-11-05T03:37:11.318Z,0.60
2022-11-05T03:39:42.622Z,1.25
2022-11-05T03:42:15.020Z,0.80
2022-11-05T03:44:57.984Z,0.40
2022-11-05T03:47:32.995Z,1.05
2022-11-05T03:50:28.750Z,0.60
2022-11-05T03:53:05.251Z,0.80
2022-11-05T03:55:57.109Z,0.63
2022-11-05T03:58:25.132Z,0.85
2022-11-05T04:00:55.632Z,0.95
2022-11-05T04:06:15.058Z,1.10
2022-11-05T04:09:00.837Z,0.90
2022-11-05T04:11:46.803Z,0.75
2022-11-05T04:14:13.944Z,1.40
2022-11-05T04:16:59.527Z,0.90
2022-11-05T04:19:45.052Z,1.10
2022-11-05T04:22:30.674Z,0.70
2022-11-05T04:24:57.752Z,1.00
2022-11-05T04:27:24.927Z,0.75
2022-11-05T04:30:10.771Z,0.80
2022-11-05T04:32:37.986Z,0.60
2022-11-05T04:35:05.312Z,0.70
2022-11-05T04:37:32.577Z,0.82
2022-11-05T04:39:59.790Z,0.60
2022-11-05T04:42:28.362Z,0.80
2022-11-05T04:44:58.379Z,0.68
2022-11-05T04:47:28.512Z,0.85
2022-11-05T04:49:55.691Z,0.52
2022-11-05T04:52:22.883Z,0.93
2022-11-05T04:54:50.063Z,1.00
2022-11-05T04:57:17.222Z,0.55
2022-11-05T05:00:16.104Z,0.77
2022-11-05T05:02:43.396Z,0.80
2022-11-05T05:05:17.176Z,0.70
2022-11-05T05:07:44.392Z,0.65
2022-11-05T05:10:12.535Z,0.70
2022-11-05T05:12:42.344Z,0.90
2022-11-05T05:15:10.470Z,0.57
2022-11-05T05:17:41.500Z,1.10
2022-11-05T05:20:27.557Z,0.93
2022-11-05T05:22:55.420Z,0.70
2022-11-05T05:25:23.090Z,0.88
2022-11-05T05:27:50.516Z,0.57
2022-11-05T05:30:18.309Z,0.70
2022-11-05T05:32:48.231Z,0.98
2022-11-05T05:35:16.209Z,0.57
2022-11-05T05:37:44.467Z,0.65
2022-11-05T05:40:12.140Z,1.20
2022-11-05T05:42:43.155Z,0.85
2022-11-05T05:45:13.108Z,0.80
2022-11-05T05:47:40.342Z,1.10
2022-11-05T05:50:07.746Z,0.70
2022-11-05T05:52:34.868Z,0.90
2022-11-05T05:55:03.172Z,0.60
2022-11-05T05:57:30.374Z,0.77
2022-11-05T05:59:57.577Z,0.73
2022-11-05T06:02:25.300Z,0.73
2022-11-05T06:04:52.440Z,0.88
2022-11-05T06:07:19.587Z,0.70
2022-11-05T06:09:47.050Z,1.27
2022-11-05T06:12:16.343Z,0.82
2022-11-05T06:14:43.466Z,1.00
2022-11-05T06:17:10.624Z,0.82
2022-11-05T06:19:37.807Z,1.15
2022-11-05T06:22:06.285Z,0.85
2022-11-05T06:24:39.484Z,1.38
2022-11-05T06:27:08.070Z,0.95
2022-11-05T06:29:35.426Z,0.82
2022-11-05T06:32:05.842Z,0.80
2022-11-05T06:34:37.052Z,0.90
2022-11-05T06:37:06.887Z,1.23
2022-11-05T06:39:37.545Z,0.98
2022-11-05T06:42:17.891Z,0.95
2022-11-05T06:44:53.498Z,0.80
2022-11-05T06:47:23.781Z,0.73
2022-11-05T06:49:50.927Z,1.40
2022-11-05T06:52:18.145Z,0.82
2022-11-05T06:54:46.371Z,0.63
2022-11-05T06:57:13.805Z,1.15
2022-11-05T06:59:41.551Z,0.57
2022-11-05T07:02:12.646Z,1.10
2022-11-05T07:04:40.974Z,0.93
2022-11-05T07:07:08.009Z,1.50
2022-11-05T07:09:38.765Z,1.20
2022-11-05T07:12:08.292Z,1.20
2022-11-05T07:14:35.709Z,0.73
2022-11-05T07:17:03.109Z,1.27
2022-11-05T07:19:33.656Z,0.95
2022-11-05T07:22:01.137Z,1.42
2022-11-05T07:24:28.325Z,0.65
2022-11-05T07:26:55.351Z,1.15
2022-11-05T07:29:22.760Z,1.27
2022-11-05T07:31:53.168Z,1.35
2022-11-05T07:34:20.437Z,0.80
2022-11-05T07:36:50.702Z,1.10
2022-11-05T07:39:17.966Z,1.02
2022-11-05T07:41:53.475Z,1.30
2022-11-05T07:44:21.926Z,0.82
2022-11-05T07:46:51.914Z,0.95
2022-11-05T07:49:27.064Z,0.60
2022-11-05T07:51:54.524Z,1.17
2022-11-05T07:54:26.876Z,0.80
2022-11-05T07:56:54.773Z,0.98
2022-11-05T07:59:24.159Z,0.90
2022-11-05T08:01:54.988Z,0.88
2022-11-05T08:04:25.606Z,0.98
2022-11-05T08:06:57.803Z,1.00
2022-11-05T08:09:24.925Z,0.77
2022-11-05T08:11:59.823Z,0.90
2022-11-05T08:14:29.877Z,1.08
2022-11-05T08:16:58.514Z,0.82
2022-11-05T08:19:25.615Z,0.80
2022-11-05T08:21:52.922Z,0.95
2022-11-05T08:24:20.160Z,1.25
2022-11-05T08:26:47.269Z,1.33
2022-11-05T08:29:14.462Z,1.02
2022-11-05T08:31:41.673Z,1.48
2022-11-05T08:34:11.591Z,1.00
2022-11-05T08:36:42.290Z,1.50
2022-11-05T08:39:14.270Z,1.80
2022-11-05T08:41:47.018Z,1.05
2022-11-05T08:44:14.103Z,0.85
2022-11-05T08:46:41.808Z,0.90
2022-11-05T08:49:09.205Z,1.20
2022-11-05T08:51:36.769Z,1.50
2022-11-05T08:54:04.062Z,1.55
2022-11-05T08:56:36.741Z,1.33
2022-11-05T08:59:06.518Z,1.03
2022-11-05T09:01:34.742Z,1.70
2022-11-05T09:04:02.324Z,0.80
2022-11-05T09:06:32.547Z,1.50
2022-11-05T09:09:02.777Z,1.55
2022-11-05T09:11:56.959Z,2.22
2022-11-05T09:14:18.745Z,1.15
2022-11-05T09:16:56.136Z,1.05
2022-11-05T09:19:26.360Z,1.48
2022-11-05T09:21:54.923Z,1.13
2022-11-05T09:24:22.126Z,1.25
2022-11-05T09:26:49.481Z,1.23
2022-11-05T09:29:19.543Z,1.33
2022-11-05T09:31:49.359Z,1.20
2022-11-05T09:34:22.818Z,1.10
2022-11-05T09:36:49.965Z,1.00
2022-11-05T09:39:17.129Z,1.17
2022-11-05T09:41:46.242Z,2.20
2022-11-05T09:44:22.569Z,1.85
2022-11-05T09:47:07.766Z,1.98
2022-11-05T09:49:59.637Z,1.35
2022-11-05T09:52:36.039Z,1.20
2022-11-05T09:55:09.696Z,0.95
2022-11-05T09:57:52.506Z,1.38
2022-11-05T10:00:19.963Z,3.83
2022-11-05T10:03:02.948Z,1.80
2022-11-05T10:05:34.273Z,1.33
2022-11-05T10:08:22.970Z,1.10
2022-11-05T10:10:56.726Z,1.73
2022-11-05T10:13:47.397Z,1.50
2022-11-05T10:16:29.552Z,2.80
2022-11-05T10:19:24.746Z,2.83
2022-11-05T10:22:10.860Z,1.35
2022-11-05T10:24:43.167Z,1.60
2022-11-05T10:27:38.882Z,1.65
2022-11-05T10:30:08.877Z,0.98
2022-11-05T10:32:39.850Z,1.17
2022-11-05T10:35:15.514Z,1.23
2022-11-05T10:37:43.825Z,1.73
2022-11-05T10:40:30.537Z,1.05
2022-11-05T10:43:14.545Z,1.20
2022-11-05T10:46:13.970Z,1.15
2022-11-05T10:49:19.271Z,1.13
2022-11-05T10:52:01.250Z,1.25
2022-11-05T10:54:35.281Z,1.15
2022-11-05T10:57:30.761Z,1.10
2022-11-05T11:00:20.009Z,1.40
2022-11-05T11:03:00.042Z,1.60
2022-11-05T11:05:36.119Z,1.17
2022-11-05T11:08:13.832Z,1.00
2022-11-05T11:10:49.295Z,1.20
2022-11-05T11:13:52.379Z,1.38
2022-11-05T11:16:23.869Z,1.38
2022-11-05T11:19:03.906Z,1.50
2022-11-05T11:21:34.514Z,1.80
2022-11-05T11:24:05.160Z,2.17
2022-11-05T11:26:40.931Z,1.15
2022-11-05T11:29:29.152Z,1.50
2022-11-05T11:32:03.005Z,1.60
2022-11-05T11:34:36.179Z,1.63
2022-11-05T11:37:19.331Z,1.58
2022-11-05T11:39:54.941Z,1.55
2022-11-05T11:42:39.630Z,1.60
2022-11-05T11:45:19.926Z,1.73
2022-11-05T11:47:58.154Z,2.03
2022-11-05T11:50:45.831Z,1.30
2022-11-05T11:53:24.534Z,1.60
2022-11-05T11:55:59.764Z,2.08
2022-11-05T11:58:39.730Z,2.30
2022-11-05T12:01:09.814Z,2.15
2022-11-05T12:03:59.297Z,2.67
2022-11-05T12:06:56.318Z,3.38
2022-11-05T12:09:53.446Z,2.13
2022-11-05T12:12:55.985Z,2.10
2022-11-05T12:15:29.136Z,2.67
2022-11-05T12:18:03.186Z,5.13
2022-11-05T12:20:48.979Z,3.10
2022-11-05T12:24:03.035Z,1.45
2022-11-05T12:26:47.913Z,2.25
2022-11-05T12:29:48.549Z,2.30
2022-11-05T12:32:31.425Z,2.20
2022-11-05T12:35:47.395Z,2.70
2022-11-05T12:38:42.657Z,2.10
2022-11-05T12:41:50.638Z,1.90
2022-11-05T12:44:45.692Z,2.10
2022-11-05T12:47:49.825Z,1.92
2022-11-05T12:50:52.549Z,2.28
2022-11-05T12:53:38.365Z,2.30
2022-11-05T12:56:24.362Z,2.35
2022-11-05T12:59:06.635Z,2.33
2022-11-05T13:01:43.345Z,2.15
2022-11-05T13:05:05.523Z,2.20
2022-11-05T13:07:40.458Z,2.22
2022-11-05T13:10:17.508Z,1.70
2022-11-05T13:12:49.609Z,2.88
2022-11-05T13:16:01.622Z,2.00
2022-11-05T13:19:08.542Z,2.35
2022-11-05T13:21:48.125Z,1.90
2022-11-05T13:24:33.460Z,2.30
2022-11-05T13:27:19.499Z,2.10
2022-11-05T13:29:58.482Z,1.70
2022-11-05T13:32:29.618Z,2.03
2022-11-05T13:34:58.951Z,1.60
2022-11-05T13:37:51.666Z,1.90
2022-11-05T13:40:25.270Z,1.95
2022-11-05T13:46:16.116Z,1.73
2022-11-05T13:49:21.237Z,1.80
2022-11-05T13:52:06.442Z,2.08
2022-11-05T13:54:42.552Z,1.77
2022-11-05T13:57:42.137Z,2.10
2022-11-05T14:00:19.699Z,2.00
2022-11-05T14:02:55.441Z,1.63
2022-11-05T14:05:26.093Z,2.20
2022-11-05T14:08:02.658Z,2.10
2022-11-05T14:10:42.827Z,2.35
2022-11-05T14:13:28.915Z,1.83
2022-11-05T14:16:08.347Z,2.17
2022-11-05T14:18:40.308Z,2.00
2022-11-05T14:21:28.047Z,1.85
2022-11-05T14:24:21.349Z,1.73
2022-11-05T14:27:22.763Z,1.50
2022-11-05T14:29:51.560Z,1.58
2022-11-05T14:32:24.551Z,1.73
2022-11-05T14:35:17.503Z,1.80
2022-11-05T14:37:55.008Z,1.20
2022-11-05T14:40:57.928Z,1.27
2022-11-05T14:43:32.408Z,1.60
2022-11-05T14:46:08.495Z,1.55
2022-11-05T14:49:09.666Z,1.65
2022-11-05T14:51:46.185Z,1.27
2022-11-05T14:54:30.618Z,1.45
2022-11-05T14:57:00.644Z,1.48
2022-11-05T14:59:28.697Z,1.45
2022-11-05T15:02:03.264Z,1.70
2022-11-05T15:04:45.991Z,2.17
2022-11-05T15:07:22.850Z,1.13
2022-11-05T15:10:08.920Z,1.08
2022-11-05T15:12:51.918Z,1.35
2022-11-05T15:15:39.072Z,1.40
2022-11-05T15:18:32.062Z,1.02
2022-11-05T15:21:02.329Z,2.25
2022-11-05T15:23:46.004Z,1.73
2022-11-05T15:28:56.775Z,1.15
2022-11-05T15:31:34.538Z,1.38
2022-11-05T15:34:24.853Z,1.70
2022-11-05T15:36:58.046Z,1.10
2022-11-05T15:39:31.566Z,1.15
2022-11-05T15:44:49.756Z,1.38
2022-11-05T15:47:27.169Z,1.45
2022-11-05T15:49:59.723Z,1.38
2022-11-05T15:52:50.718Z,1.40
2022-11-05T15:55:25.952Z,1.20
2022-11-05T15:57:53.133Z,1.30
2022-11-05T16:00:29.333Z,1.20
2022-11-05T16:03:16.277Z,1.27
2022-11-05T16:05:46.933Z,1.40
2022-11-05T16:08:28.819Z,1.23
2022-11-05T16:10:59.209Z,1.33
2022-11-05T16:13:42.747Z,1.48
2022-11-05T16:16:40.046Z,1.25
2022-11-05T16:19:40.110Z,1.33
2022-11-05T16:22:12.746Z,1.20
2022-11-05T16:24:42.948Z,0.88
2022-11-05T16:27:27.208Z,0.88
2022-11-05T16:29:59.776Z,0.95
2022-11-05T16:32:33.308Z,1.15
2022-11-05T16:37:51.985Z,2.03
2022-11-05T16:40:31.473Z,2.10
2022-11-05T16:43:33.429Z,4.05
2022-11-05T16:46:03.409Z,2.08
2022-11-05T16:48:38.554Z,1.50
2022-11-05T16:51:15.428Z,1.38
2022-11-05T16:53:54.626Z,1.40
2022-11-05T16:56:35.567Z,1.27
2022-11-05T16:59:18.803Z,1.60
2022-11-05T17:01:56.117Z,2.03
2022-11-05T17:04:32.093Z,1.38
2022-11-05T17:07:12.404Z,1.60
2022-11-05T17:09:43.069Z,1.40
2022-11-05T17:12:26.787Z,1.50
2022-11-05T17:15:09.753Z,1.67
2022-11-05T17:17:41.984Z,2.28
2022-11-05T17:20:25.316Z,4.75
2022-11-05T17:22:53.958Z,3.80
2022-11-05T17:25:28.759Z,3.63
2022-11-05T17:28:05.709Z,2.88
2022-11-05T17:30:36.686Z,3.45
2022-11-05T17:33:18.634Z,3.30
2022-11-05T17:35:49.361Z,3.10
2022-11-05T17:38:26.347Z,3.40
2022-11-05T17:40:56.258Z,3.90
2022-11-05T17:43:26.289Z,3.15
2022-11-05T17:46:01.519Z,3.60
2022-11-05T17:48:32.989Z,3.33
2022-11-05T17:51:01.579Z,2.70
2022-11-05T17:53:34.590Z,3.45
2022-11-05T17:56:34.788Z,4.03
2022-11-05T17:59:08.909Z,3.83
2022-11-05T18:01:48.236Z,5.40
2022-11-05T18:04:21.879Z,4.45
2022-11-05T18:07:03.729Z,5.47
2022-11-05T18:09:42.175Z,4.70
2022-11-05T18:12:20.184Z,4.38
2022-11-05T18:15:17.425Z,4.80
2022-11-05T18:17:51.196Z,4.50
2022-11-05T18:20:36.054Z,4.80
2022-11-05T18:23:18.314Z,5.30
2022-11-05T18:25:53.654Z,5.55
2022-11-05T18:28:37.399Z,6.40
2022-11-05T18:33:57.325Z,5.18
2022-11-05T18:36:37.766Z,5.43
2022-11-05T18:39:31.752Z,6.25
2022-11-05T18:42:02.659Z,5.57
2022-11-05T18:44:39.209Z,6.70
2022-11-05T18:47:24.550Z,6.45
2022-11-05T18:50:15.081Z,4.88
2022-11-05T18:52:56.086Z,4.88
2022-11-05T18:55:46.510Z,8.63
2022-11-05T18:58:18.416Z,8.75
2022-11-05T19:01:06.481Z,6.82
2022-11-05T19:03:53.396Z,5.95
2022-11-05T19:10:02.990Z,5.15
2022-11-05T19:12:49.045Z,5.20
2022-11-05T19:18:53.735Z,6.30
2022-11-05T19:21:42.846Z,5.30
2022-11-05T19:24:38.345Z,4.88
2022-11-05T19:27:14.240Z,6.15
2022-11-05T19:30:16.356Z,5.72
2022-11-05T19:32:53.273Z,5.40
2022-11-05T19:38:14.872Z,5.15
2022-11-05T19:40:54.747Z,5.15
2022-11-05T19:44:03.546Z,5.80
2022-11-05T19:46:58.556Z,5.20
2022-11-05T19:49:34.877Z,6.57
2022-11-05T19:52:36.398Z,6.28
2022-11-05T19:55:20.960Z,6.78
2022-11-05T19:58:18.389Z,7.30
2022-11-05T20:01:02.348Z,7.07
2022-11-05T20:03:54.494Z,6.20
2022-11-05T20:06:39.215Z,6.22
2022-11-05T20:09:28.724Z,5.85
2022-11-05T20:12:19.913Z,6.05
2022-11-05T20:15:10.956Z,7.70
2022-11-05T20:18:22.785Z,5.82
2022-11-05T20:21:21.875Z,5.30
2022-11-05T20:24:03.451Z,4.72
2022-11-05T20:26:40.661Z,6.07
2022-11-05T20:32:29.089Z,5.38
2022-11-05T20:35:28.140Z,5.30
2022-11-05T20:38:41.067Z,6.20
2022-11-05T20:41:27.966Z,7.88
2022-11-05T20:44:21.506Z,12.77
2022-11-05T20:47:22.831Z,13.75
2022-11-05T20:49:56.293Z,12.82
2022-11-05T20:52:53.873Z,11.75
2022-11-05T20:55:42.351Z,9.55
2022-11-05T20:58:24.046Z,9.90
2022-11-05T21:01:41.398Z,9.10
2022-11-05T21:04:27.112Z,8.43
2022-11-05T21:07:26.533Z,7.93
2022-11-05T21:10:31.591Z,8.93
2022-11-05T21:13:18.926Z,9.05
2022-11-05T21:16:33.408Z,9.98
2022-11-05T21:19:16.370Z,13.18
2022-11-05T21:22:04.180Z,15.23
2022-11-05T21:25:26.217Z,15.45
2022-11-05T21:28:49.366Z,17.17
2022-11-05T21:31:36.219Z,18.15
2022-11-05T21:34:25.623Z,17.27
2022-11-05T21:37:02.053Z,18.33
2022-11-05T21:39:37.604Z,16.67
2022-11-05T21:42:17.272Z,16.95
2022-11-05T21:44:49.439Z,15.10
2022-11-05T21:47:29.180Z,12.93
2022-11-05T21:49:58.855Z,10.55
2022-11-05T21:52:50.289Z,9.95
2022-11-05T21:55:49.937Z,9.10
2022-11-05T21:58:51.105Z,6.53
2022-11-05T22:01:20.373Z,7.47
2022-11-05T22:03:53.193Z,6.72
2022-11-05T22:06:22.906Z,6.80
2022-11-05T22:08:51.966Z,5.90
2022-11-05T22:11:24.073Z,7.15
2022-11-05T22:13:55.150Z,6.78
2022-11-05T22:16:29.191Z,6.22
2022-11-05T22:19:04.932Z,7.05
2022-11-05T22:21:38.092Z,6.78
2022-11-05T22:24:10.535Z,6.40
2022-11-05T22:26:43.944Z,6.22
2022-11-05T22:29:15.661Z,5.50
2022-11-05T22:31:49.021Z,5.80
2022-11-05T22:36:56.506Z,7.00
2022-11-05T22:39:27.598Z,6.15
2022-11-05T22:42:08.556Z,6.68
2022-11-05T22:44:40.077Z,7.57
2022-11-05T22:47:08.491Z,6.45
2022-11-05T22:49:41.225Z,6.43
2022-11-05T22:52:11.662Z,6.05
2022-11-05T22:54:43.842Z,6.75
2022-11-05T22:57:14.057Z,6.65
2022-11-05T22:59:50.146Z,7.45
2022-11-05T23:02:29.369Z,6.55
2022-11-05T23:05:10.734Z,6.07
2022-11-05T23:07:59.083Z,5.13
2022-11-05T23:10:45.936Z,7.50
2022-11-05T23:13:17.881Z,6.57
2022-11-05T23:16:06.106Z,6.05
2022-11-05T23:19:17.064Z,6.22
2022-11-05T23:22:03.988Z,6.00
2022-11-05T23:24:33.606Z,5.75
2022-11-05T23:27:01.043Z,5.07
2022-11-05T23:29:28.524Z,6.70
2022-11-05T23:32:18.000Z,6.00
2022-11-05T23:34:51.987Z,5.40
2022-11-05T23:40:26.731Z,6.57
2022-11-05T23:43:13.052Z,5.85
2022-11-05T23:46:03.418Z,5.70
2022-11-05T23:48:39.683Z,6.18
2022-11-05T23:51:13.711Z,6.30
2022-11-05T23:53:46.381Z,6.22
2022-11-05T23:56:21.681Z,6.50
2022-11-05T23:58:49.342Z,7.75
